createdAt,value
2023-04-15T00:00:11.701Z,101054.17
2023-04-15T00:01:13.811Z,101056.78
2023-04-15T00:02:15.736Z,101057.67
2023-04-15T00:03:17.781Z,101067.20
2023-04-15T00:04:19.734Z,101062.84
2023-04-15T00:05:21.479Z,101061.08
2023-04-15T00:06:23.302Z,101062.78
2023-04-15T00:07:25.130Z,101071.47
2023-04-15T00:08:26.929Z,101076.66
2023-04-15T00:09:28.739Z,101075.86
2023-04-15T00:10:30.534Z,101077.59
2023-04-15T00:11:32.354Z,101075.02
2023-04-15T00:12:34.196Z,101077.65
2023-04-15T00:13:36.049Z,101081.15
2023-04-15T00:14:37.801Z,101070.78
2023-04-15T00:15:39.601Z,101076.02
2023-04-15T00:16:41.485Z,101084.70
2023-04-15T00:17:43.398Z,101078.64
2023-04-15T00:18:45.077Z,101070.87
2023-04-15T00:19:46.869Z,101074.34
2023-04-15T00:20:48.677Z,101074.34
2023-04-15T00:21:50.496Z,101072.61
2023-04-15T00:22:52.338Z,101074.34
2023-04-15T00:23:54.142Z,101072.55
2023-04-15T00:24:55.965Z,101069.95
2023-04-15T00:25:57.753Z,101076.84
2023-04-15T00:26:59.580Z,101074.22
2023-04-15T00:28:01.510Z,101077.68
2023-04-15T00:29:03.329Z,101075.95
2023-04-15T00:30:05.223Z,101076.75
2023-04-15T00:31:07.078Z,101074.93
2023-04-15T00:32:08.948Z,101078.36
2023-04-15T00:33:10.819Z,101074.03
2023-04-15T00:34:12.592Z,101082.69
2023-04-15T00:35:14.408Z,101067.94
2023-04-15T00:36:16.219Z,101076.63
2023-04-15T00:37:18.013Z,101069.77
2023-04-15T00:38:19.856Z,101074.96
2023-04-15T00:39:21.661Z,101075.77
2023-04-15T00:40:23.479Z,101077.47
2023-04-15T00:41:25.300Z,101079.17
2023-04-15T00:42:27.095Z,101072.21
2023-04-15T00:43:28.928Z,101075.64
2023-04-15T00:44:30.738Z,101077.37
2023-04-15T00:45:32.567Z,101080.03
2023-04-15T00:46:34.365Z,101080.03
2023-04-15T00:47:36.244Z,101079.17
2023-04-15T00:48:38.029Z,101079.11
2023-04-15T00:49:39.844Z,101079.88
2023-04-15T00:50:41.644Z,101083.31
2023-04-15T00:51:43.462Z,101078.92
2023-04-15T00:52:45.263Z,101081.45
2023-04-15T00:53:47.068Z,101084.05
2023-04-15T00:54:48.769Z,101085.81
2023-04-15T00:55:50.579Z,101085.84
2023-04-15T00:56:52.388Z,101083.25
2023-04-15T00:57:54.210Z,101085.88
2023-04-15T00:58:55.945Z,101081.58
2023-04-15T00:59:57.738Z,101078.95
2023-04-15T01:00:59.544Z,101084.98
2023-04-15T01:02:01.453Z,101085.75
2023-04-15T01:03:03.367Z,101077.02
2023-04-15T01:04:05.480Z,101083.05
2023-04-15T01:05:07.442Z,101087.41
2023-04-15T01:06:09.868Z,101087.41
2023-04-15T01:07:11.670Z,101088.28
2023-04-15T01:08:13.457Z,101090.91
2023-04-15T01:09:15.300Z,101095.27
2023-04-15T01:10:17.097Z,101092.67
2023-04-15T01:11:18.906Z,101086.61
2023-04-15T01:12:20.766Z,101088.28
2023-04-15T01:13:22.526Z,101090.87
2023-04-15T01:14:24.356Z,101085.65
2023-04-15T01:15:26.150Z,101097.77
2023-04-15T01:16:28.071Z,101102.03
2023-04-15T01:17:30.048Z,101090.71
2023-04-15T01:18:31.859Z,101098.44
2023-04-15T01:19:33.813Z,101098.41
2023-04-15T01:20:35.622Z,101100.93
2023-04-15T01:21:37.523Z,101101.63
2023-04-15T01:22:39.379Z,101098.92
2023-04-15T01:23:41.248Z,101097.16
2023-04-15T01:24:43.118Z,101093.73
2023-04-15T01:25:44.916Z,101105.84
2023-04-15T01:26:46.724Z,101099.76
2023-04-15T01:27:48.542Z,101083.22
2023-04-15T01:28:50.344Z,101096.98
2023-04-15T01:29:52.201Z,101090.94
2023-04-15T01:30:54.021Z,101090.97
2023-04-15T01:31:56.021Z,101086.58
2023-04-15T01:32:57.982Z,101086.58
2023-04-15T01:33:59.750Z,101085.67
2023-04-15T01:35:01.605Z,101094.29
2023-04-15T01:36:03.494Z,101089.09
2023-04-15T01:37:05.302Z,101092.59
2023-04-15T01:38:07.099Z,101096.92
2023-04-15T01:39:08.904Z,101106.44
2023-04-15T01:40:10.846Z,101095.16
2023-04-15T01:41:12.658Z,101102.91
2023-04-15T01:42:14.458Z,101101.00
2023-04-15T01:43:16.264Z,101107.73
2023-04-15T01:44:18.060Z,101107.70
2023-04-15T01:45:19.921Z,101111.16
2023-04-15T01:46:21.753Z,101115.41
2023-04-15T01:47:23.584Z,101119.77
2023-04-15T01:48:25.442Z,101114.58
2023-04-15T01:49:27.352Z,101124.13
2023-04-15T01:50:29.199Z,101122.37
2023-04-15T01:51:30.910Z,101121.50
2023-04-15T01:52:32.706Z,101127.55
2023-04-15T01:53:34.502Z,101126.72
2023-04-15T01:54:36.315Z,101129.28
2023-04-15T01:55:38.272Z,101130.11
2023-04-15T01:56:40.079Z,101126.66
2023-04-15T01:57:41.864Z,101136.13
2023-04-15T01:58:43.783Z,101123.98
2023-04-15T01:59:45.595Z,101126.61
2023-04-15T02:00:47.480Z,101131.02
2023-04-15T02:01:49.260Z,101128.42
2023-04-15T02:02:51.257Z,101128.45
2023-04-15T02:03:53.138Z,101119.84
2023-04-15T02:04:54.978Z,101126.80
2023-04-15T02:05:56.833Z,101132.03
2023-04-15T02:06:58.653Z,101139.88
2023-04-15T02:08:00.448Z,101139.92
2023-04-15T02:09:02.454Z,101138.12
2023-04-15T02:10:04.350Z,101141.43
2023-04-15T02:11:06.200Z,101150.87
2023-04-15T02:12:08.007Z,101150.80
2023-04-15T02:13:09.905Z,101158.58
2023-04-15T02:14:11.709Z,101155.98
2023-04-15T02:15:13.511Z,101151.66
2023-04-15T02:16:15.402Z,101161.17
2023-04-15T02:17:17.190Z,101157.70
2023-04-15T02:18:18.984Z,101157.75
2023-04-15T02:19:20.787Z,101169.86
2023-04-15T02:20:22.685Z,101173.42
2023-04-15T02:21:24.547Z,101169.94
2023-04-15T02:22:26.346Z,101166.52
2023-04-15T02:23:28.158Z,101168.28
2023-04-15T02:24:29.986Z,101172.56
2023-04-15T02:25:31.808Z,101179.52
2023-04-15T02:26:33.644Z,101170.05
2023-04-15T02:27:35.435Z,101175.31
2023-04-15T02:28:37.238Z,101180.50
2023-04-15T02:29:39.049Z,101175.31
2023-04-15T02:30:40.871Z,101182.27
2023-04-15T02:31:42.736Z,101177.95
2023-04-15T02:32:44.633Z,101180.58
2023-04-15T02:33:46.434Z,101191.81
2023-04-15T02:34:48.247Z,101184.78
2023-04-15T02:35:50.052Z,101178.69
2023-04-15T02:36:51.890Z,101179.45
2023-04-15T02:37:53.713Z,101182.83
2023-04-15T02:38:55.510Z,101181.88
2023-04-15T02:39:57.318Z,101180.98
2023-04-15T02:40:59.115Z,101180.05
2023-04-15T02:42:00.951Z,101179.13
2023-04-15T02:43:02.775Z,101176.58
2023-04-15T02:44:04.572Z,101180.05
2023-04-15T02:45:06.382Z,101176.54
2023-04-15T02:46:08.391Z,101178.23
2023-04-15T02:47:10.317Z,101180.83
2023-04-15T02:48:12.123Z,101183.46
2023-04-15T02:49:13.933Z,101190.38
2023-04-15T02:50:16.593Z,101185.94
2023-04-15T02:51:18.442Z,101185.07
2023-04-15T02:52:20.587Z,101183.30
2023-04-15T02:53:22.400Z,101181.53
2023-04-15T02:54:24.285Z,101180.62
2023-04-15T02:55:26.073Z,101191.87
2023-04-15T02:56:27.901Z,101189.23
2023-04-15T02:57:29.749Z,101187.47
2023-04-15T02:58:31.542Z,101190.10
2023-04-15T02:59:33.342Z,101180.62
2023-04-15T03:00:35.144Z,101196.19
2023-04-15T03:01:36.971Z,101200.47
2023-04-15T03:02:38.974Z,101199.56
2023-04-15T03:03:41.020Z,101195.20
2023-04-15T03:04:42.911Z,101199.56
2023-04-15T03:05:44.707Z,101207.34
2023-04-15T03:06:46.510Z,101203.06
2023-04-15T03:07:48.344Z,101216.91
2023-04-15T03:08:50.049Z,101208.30
2023-04-15T03:09:51.858Z,101215.25
2023-04-15T03:10:53.683Z,101211.75
2023-04-15T03:11:55.477Z,101209.16
2023-04-15T03:12:57.297Z,101207.42
2023-04-15T03:13:59.106Z,101207.47
2023-04-15T03:15:00.809Z,101208.34
2023-04-15T03:16:02.633Z,101213.48
2023-04-15T03:17:04.406Z,101211.71
2023-04-15T03:18:06.143Z,101216.03
2023-04-15T03:19:07.944Z,101217.68
2023-04-15T03:20:09.953Z,101211.59
2023-04-15T03:21:11.774Z,101214.14
2023-04-15T03:22:13.559Z,101214.19
2023-04-15T03:23:15.404Z,101223.73
2023-04-15T03:24:17.223Z,101218.55
2023-04-15T03:25:19.042Z,101219.38
2023-04-15T03:26:20.848Z,101227.16
2023-04-15T03:27:22.653Z,101221.06
2023-04-15T03:28:24.497Z,101221.02
2023-04-15T03:29:26.211Z,101219.25
2023-04-15T03:30:28.018Z,101218.38
2023-04-15T03:31:29.852Z,101223.57
2023-04-15T03:32:31.551Z,101223.61
2023-04-15T03:33:33.353Z,101226.24
2023-04-15T03:34:35.146Z,101223.48
2023-04-15T03:35:36.951Z,101220.84
2023-04-15T03:36:38.761Z,101222.50
2023-04-15T03:37:40.562Z,101227.64
2023-04-15T03:38:42.400Z,101233.69
2023-04-15T03:39:44.100Z,101230.23
2023-04-15T03:40:45.900Z,101231.92
2023-04-15T03:41:47.706Z,101231.97
2023-04-15T03:42:49.517Z,101236.23
2023-04-15T03:43:51.251Z,101233.56
2023-04-15T03:44:53.039Z,101228.29
2023-04-15T03:45:54.846Z,101233.44
2023-04-15T03:46:56.646Z,101239.48
2023-04-15T03:48:11.281Z,101232.58
2023-04-15T03:49:02.190Z,101230.92
2023-04-15T03:50:04.251Z,101241.42
2023-04-15T03:51:06.044Z,101232.75
2023-04-15T03:52:07.850Z,101237.06
2023-04-15T03:53:09.655Z,101244.88
2023-04-15T03:54:11.489Z,101245.75
2023-04-15T03:55:13.318Z,101248.34
2023-04-15T03:56:15.084Z,101248.30
2023-04-15T03:57:16.881Z,101244.84
2023-04-15T03:58:18.693Z,101251.88
2023-04-15T03:59:20.552Z,101247.56
2023-04-15T04:00:22.347Z,101257.98
2023-04-15T04:01:24.139Z,101258.06
2023-04-15T04:02:26.077Z,101262.34
2023-04-15T04:03:28.270Z,101257.02
2023-04-15T04:04:30.434Z,101255.21
2023-04-15T04:05:32.335Z,101263.81
2023-04-15T04:06:34.101Z,101258.50
2023-04-15T04:07:35.931Z,101259.19
2023-04-15T04:08:37.742Z,101259.96
2023-04-15T04:09:39.473Z,101256.42
2023-04-15T04:10:41.314Z,101270.20
2023-04-15T04:11:43.093Z,101265.84
2023-04-15T04:12:44.885Z,101263.24
2023-04-15T04:13:46.790Z,101265.84
2023-04-15T04:14:48.638Z,101266.61
2023-04-15T04:15:50.489Z,101263.11
2023-04-15T04:16:52.456Z,101262.29
2023-04-15T04:17:54.280Z,101270.02
2023-04-15T04:18:56.039Z,101263.98
2023-04-15T04:19:57.983Z,101271.75
2023-04-15T04:20:59.797Z,101274.34
2023-04-15T04:22:01.608Z,101274.44
2023-04-15T04:23:03.422Z,101277.03
2023-04-15T04:24:05.225Z,101283.98
2023-04-15T04:25:07.051Z,101283.06
2023-04-15T04:26:09.077Z,101277.80
2023-04-15T04:27:10.891Z,101280.39
2023-04-15T04:28:12.672Z,101272.47
2023-04-15T04:29:14.472Z,101268.94
2023-04-15T04:30:16.354Z,101272.42
2023-04-15T04:31:18.146Z,101278.44
2023-04-15T04:32:19.975Z,101271.44
2023-04-15T04:33:21.739Z,101270.44
2023-04-15T04:34:23.453Z,101270.38
2023-04-15T04:35:25.307Z,101265.25
2023-04-15T04:36:27.123Z,101272.16
2023-04-15T04:37:28.932Z,101272.13
2023-04-15T04:38:30.728Z,101274.76
2023-04-15T04:39:32.523Z,101277.39
2023-04-15T04:40:34.466Z,101273.98
2023-04-15T04:41:36.278Z,101273.20
2023-04-15T04:42:39.868Z,101274.12
2023-04-15T04:43:41.710Z,101281.12
2023-04-15T04:44:43.625Z,101279.44
2023-04-15T04:45:45.488Z,101279.44
2023-04-15T04:46:47.289Z,101286.53
2023-04-15T04:47:49.105Z,101283.11
2023-04-15T04:48:50.886Z,101296.98
2023-04-15T04:49:52.703Z,101290.98
2023-04-15T04:50:54.572Z,101295.22
2023-04-15T04:51:56.381Z,101300.40
2023-04-15T04:52:58.175Z,101290.94
2023-04-15T04:54:01.273Z,101298.84
2023-04-15T04:55:03.481Z,101305.81
2023-04-15T04:56:05.341Z,101313.71
2023-04-15T04:57:07.138Z,101305.08
2023-04-15T04:58:08.848Z,101305.94
2023-04-15T04:59:10.639Z,101308.41
2023-04-15T05:00:12.857Z,101302.21
2023-04-15T05:01:14.749Z,101315.95
2023-04-15T05:02:16.904Z,101312.49
2023-04-15T05:03:19.107Z,101305.54
2023-04-15T05:04:21.252Z,101306.39
2023-04-15T05:05:23.061Z,101305.45
2023-04-15T05:06:24.909Z,101305.49
2023-04-15T05:07:26.703Z,101302.99
2023-04-15T05:08:28.512Z,101309.98
2023-04-15T05:09:30.304Z,101310.08
2023-04-15T05:10:32.134Z,101308.41
2023-04-15T05:11:33.982Z,101311.12
2023-04-15T05:12:35.764Z,101322.41
2023-04-15T05:13:37.566Z,101311.04
2023-04-15T05:14:39.370Z,101311.98
2023-04-15T05:15:41.211Z,101312.86
2023-04-15T05:16:43.044Z,101311.16
2023-04-15T05:17:44.918Z,101310.35
2023-04-15T05:18:46.760Z,101313.03
2023-04-15T05:19:48.626Z,101315.67
2023-04-15T05:20:50.387Z,101320.08
2023-04-15T05:21:52.232Z,101302.84
2023-04-15T05:22:54.083Z,101302.88
2023-04-15T05:23:55.852Z,101308.16
2023-04-15T05:24:57.672Z,101309.02
2023-04-15T05:25:59.483Z,101304.73
2023-04-15T05:27:01.315Z,101305.66
2023-04-15T05:28:03.108Z,101310.02
2023-04-15T05:29:04.907Z,101316.19
2023-04-15T05:30:06.832Z,101311.05
2023-04-15T05:31:08.757Z,101310.31
2023-04-15T05:32:10.594Z,101315.63
2023-04-15T05:33:12.398Z,101324.41
2023-04-15T05:34:14.201Z,101313.12
2023-04-15T05:35:16.042Z,101313.16
2023-04-15T05:36:17.825Z,101316.70
2023-04-15T05:37:19.666Z,101314.94
2023-04-15T05:38:21.462Z,101305.38
2023-04-15T05:39:23.282Z,101309.83
2023-04-15T05:40:25.086Z,101307.32
2023-04-15T05:41:26.778Z,101308.30
2023-04-15T05:42:28.621Z,101313.58
2023-04-15T05:43:30.447Z,101317.91
2023-04-15T05:44:32.238Z,101311.84
2023-04-15T05:45:34.060Z,101321.41
2023-04-15T05:46:35.962Z,101313.62
2023-04-15T05:47:37.909Z,101312.63
2023-04-15T05:48:39.730Z,101314.32
2023-04-15T05:49:41.551Z,101310.00
2023-04-15T05:50:43.368Z,101317.78
2023-04-15T05:51:45.181Z,101317.87
2023-04-15T05:52:47.023Z,101324.00
2023-04-15T05:53:48.841Z,101324.87
2023-04-15T05:54:50.658Z,101312.80
2023-04-15T05:55:52.454Z,101324.13
2023-04-15T05:56:54.301Z,101320.67
2023-04-15T05:57:56.105Z,101324.13
2023-04-15T05:58:57.925Z,101318.03
2023-04-15T05:59:59.738Z,101318.11
2023-04-15T06:01:01.542Z,101329.44
2023-04-15T06:02:03.347Z,101330.42
2023-04-15T06:03:05.216Z,101327.91
2023-04-15T06:04:07.157Z,101332.27
2023-04-15T06:05:09.121Z,101334.08
2023-04-15T06:06:11.205Z,101335.77
2023-04-15T06:07:13.018Z,101332.27
2023-04-15T06:08:14.861Z,101334.83
2023-04-15T06:09:16.672Z,101334.83
2023-04-15T06:10:18.469Z,101333.09
2023-04-15T06:11:20.280Z,101340.02
2023-04-15T06:12:22.091Z,101341.70
2023-04-15T06:13:23.924Z,101339.06
2023-04-15T06:14:25.728Z,101347.77
2023-04-15T06:15:27.535Z,101350.44
2023-04-15T06:16:29.404Z,101343.56
2023-04-15T06:17:31.190Z,101350.56
2023-04-15T06:18:33.105Z,101342.81
2023-04-15T06:19:34.974Z,101341.17
2023-04-15T06:20:36.871Z,101340.34
2023-04-15T06:21:38.666Z,101348.21
2023-04-15T06:22:40.473Z,101344.78
2023-04-15T06:23:42.314Z,101347.38
2023-04-15T06:24:44.126Z,101347.42
2023-04-15T06:25:45.945Z,101344.04
2023-04-15T06:26:47.735Z,101349.23
2023-04-15T06:27:49.534Z,101341.48
2023-04-15T06:28:51.396Z,101351.91
2023-04-15T06:29:53.201Z,101346.75
2023-04-15T06:30:55.010Z,101348.53
2023-04-15T06:31:56.886Z,101352.03
2023-04-15T06:32:58.800Z,101357.22
2023-04-15T06:34:00.666Z,101362.45
2023-04-15T06:35:03.591Z,101359.89
2023-04-15T06:36:05.379Z,101364.23
2023-04-15T06:37:07.190Z,101371.27
2023-04-15T06:38:09.003Z,101367.89
2023-04-15T06:39:10.835Z,101363.59
2023-04-15T06:40:13.076Z,101376.66
2023-04-15T06:41:14.871Z,101374.10
2023-04-15T06:42:16.680Z,101372.52
2023-04-15T06:43:18.476Z,101370.05
2023-04-15T06:44:20.305Z,101370.91
2023-04-15T06:45:22.116Z,101371.81
2023-04-15T06:46:24.033Z,101377.91
2023-04-15T06:47:25.864Z,101370.12
2023-04-15T06:48:27.741Z,101370.16
2023-04-15T06:49:29.498Z,101376.30
2023-04-15T06:50:31.307Z,101368.58
2023-04-15T06:51:33.106Z,101374.71
2023-04-15T06:52:34.908Z,101370.42
2023-04-15T06:53:36.710Z,101372.23
2023-04-15T06:54:38.563Z,101375.73
2023-04-15T06:55:40.376Z,101369.66
2023-04-15T06:56:42.194Z,101371.36
2023-04-15T06:57:44.008Z,101375.69
2023-04-15T06:58:45.845Z,101373.89
2023-04-15T06:59:48.502Z,101376.45
2023-04-15T07:00:50.325Z,101383.38
2023-04-15T07:01:52.152Z,101386.80
2023-04-15T07:02:53.930Z,101372.04
2023-04-15T07:03:55.759Z,101390.22
2023-04-15T07:04:57.478Z,101382.39
2023-04-15T07:05:59.288Z,101387.59
2023-04-15T07:07:01.321Z,101386.69
2023-04-15T07:08:03.146Z,101394.48
2023-04-15T07:09:05.321Z,101389.33
2023-04-15T07:10:07.545Z,101395.50
2023-04-15T07:11:09.364Z,101384.28
2023-04-15T07:12:11.172Z,101388.65
2023-04-15T07:13:12.966Z,101385.22
2023-04-15T07:14:14.778Z,101393.05
2023-04-15T07:15:16.633Z,101386.09
2023-04-15T07:16:18.513Z,101379.20
2023-04-15T07:17:20.406Z,101384.39
2023-04-15T07:18:22.251Z,101385.30
2023-04-15T07:19:23.966Z,101385.30
2023-04-15T07:20:25.873Z,101386.13
2023-04-15T07:21:27.642Z,101379.13
2023-04-15T07:22:29.505Z,101382.63
2023-04-15T07:23:31.327Z,101392.16
2023-04-15T07:24:33.137Z,101392.23
2023-04-15T07:25:34.968Z,101395.73
2023-04-15T07:26:36.773Z,101387.89
2023-04-15T07:27:38.593Z,101399.19
2023-04-15T07:28:40.408Z,101394.79
2023-04-15T07:29:42.217Z,101398.25
2023-04-15T07:30:44.274Z,101403.41
2023-04-15T07:31:46.060Z,101395.61
2023-04-15T07:32:47.899Z,101403.48
2023-04-15T07:33:49.678Z,101407.78
2023-04-15T07:34:51.481Z,101409.47
2023-04-15T07:35:53.322Z,101402.51
2023-04-15T07:36:55.128Z,101407.70
2023-04-15T07:37:56.933Z,101409.55
2023-04-15T07:38:58.781Z,101407.81
2023-04-15T07:40:00.574Z,101414.75
2023-04-15T07:41:02.402Z,101412.15
2023-04-15T07:42:04.217Z,101412.15
2023-04-15T07:43:05.916Z,101421.71
2023-04-15T07:44:07.722Z,101414.78
2023-04-15T07:45:09.529Z,101407.78
2023-04-15T07:46:11.382Z,101418.13
2023-04-15T07:47:13.275Z,101414.67
2023-04-15T07:48:15.077Z,101417.27
2023-04-15T07:49:16.896Z,101417.31
2023-04-15T07:50:18.685Z,101417.34
2023-04-15T07:51:20.525Z,101413.05
2023-04-15T07:52:22.341Z,101403.52
2023-04-15T07:53:24.162Z,101407.86
2023-04-15T07:54:25.996Z,101411.36
2023-04-15T07:55:28.362Z,101403.52
2023-04-15T07:56:30.230Z,101404.31
2023-04-15T07:57:32.017Z,101400.84
2023-04-15T07:58:33.834Z,101406.91
2023-04-15T07:59:35.670Z,101410.42
2023-04-15T08:00:37.490Z,101418.29
2023-04-15T08:01:39.346Z,101415.69
2023-04-15T08:02:41.327Z,101413.09
2023-04-15T08:03:43.423Z,101413.92
2023-04-15T08:04:45.448Z,101408.68
2023-04-15T08:05:47.323Z,101412.15
2023-04-15T08:06:49.138Z,101419.95
2023-04-15T08:07:50.967Z,101403.56
2023-04-15T08:08:52.773Z,101403.56
2023-04-15T08:09:54.595Z,101407.10
2023-04-15T08:10:56.502Z,101418.36
2023-04-15T08:11:58.335Z,101408.83
2023-04-15T08:13:00.156Z,101412.30
2023-04-15T08:14:02.016Z,101408.88
2023-04-15T08:15:03.855Z,101410.60
2023-04-15T08:16:06.198Z,101402.80
2023-04-15T08:17:08.006Z,101408.91
2023-04-15T08:18:09.698Z,101408.95
2023-04-15T08:19:11.515Z,101405.41
2023-04-15T08:20:13.420Z,101403.71
2023-04-15T08:21:15.233Z,101404.61
2023-04-15T08:22:18.013Z,101403.82
2023-04-15T08:23:20.713Z,101403.82
2023-04-15T08:24:22.526Z,101409.05
2023-04-15T08:25:24.369Z,101401.22
2023-04-15T08:26:26.162Z,101399.48
2023-04-15T08:27:28.001Z,101407.28
2023-04-15T08:28:29.826Z,101402.13
2023-04-15T08:29:31.704Z,101409.92
2023-04-15T08:30:33.528Z,101414.25
2023-04-15T08:31:35.367Z,101413.50
2023-04-15T08:32:37.476Z,101403.97
2023-04-15T08:33:39.272Z,101410.03
2023-04-15T08:34:41.079Z,101417.91
2023-04-15T08:35:43.922Z,101423.14
2023-04-15T08:36:45.720Z,101417.04
2023-04-15T08:37:47.579Z,101423.07
2023-04-15T08:38:49.419Z,101429.09
2023-04-15T08:39:51.202Z,101429.09
2023-04-15T08:40:53.000Z,101422.95
2023-04-15T08:41:54.892Z,101429.05
2023-04-15T08:42:56.656Z,101418.70
2023-04-15T08:43:58.358Z,101427.40
2023-04-15T08:45:00.159Z,101427.44
2023-04-15T08:46:01.956Z,101426.61
2023-04-15T08:47:03.864Z,101427.55
2023-04-15T08:48:05.846Z,101429.36
2023-04-15T08:49:07.611Z,101434.66
2023-04-15T08:50:09.515Z,101436.47
2023-04-15T08:51:11.329Z,101429.57
2023-04-15T08:52:13.147Z,101442.61
2023-04-15T08:53:15.000Z,101437.34
2023-04-15T08:54:16.792Z,101437.30
2023-04-15T08:55:18.601Z,101438.17
2023-04-15T08:56:20.473Z,101443.37
2023-04-15T08:57:22.322Z,101437.30
2023-04-15T08:58:24.149Z,101428.59
2023-04-15T08:59:25.954Z,101433.83
2023-04-15T09:00:27.748Z,101439.90
2023-04-15T09:01:29.689Z,101440.77
2023-04-15T09:02:31.677Z,101441.70
2023-04-15T09:03:33.683Z,101439.97
2023-04-15T09:04:35.522Z,101440.84
2023-04-15T09:05:37.340Z,101437.45
2023-04-15T09:06:39.142Z,101434.84
2023-04-15T09:07:40.838Z,101440.01
2023-04-15T09:08:42.685Z,101440.80
2023-04-15T09:09:44.488Z,101445.14
2023-04-15T09:10:46.295Z,101444.27
2023-04-15T09:11:48.091Z,101439.06
2023-04-15T09:12:49.904Z,101439.06
2023-04-15T09:13:51.747Z,101441.70
2023-04-15T09:14:53.546Z,101448.61
2023-04-15T09:15:55.344Z,101443.37
2023-04-15T09:16:57.211Z,101444.23
2023-04-15T09:17:58.967Z,101444.20
2023-04-15T09:19:00.988Z,101449.39
2023-04-15T09:20:02.895Z,101453.73
2023-04-15T09:21:04.689Z,101452.00
2023-04-15T09:22:06.501Z,101447.63
2023-04-15T09:23:08.201Z,101455.46
2023-04-15T09:24:10.030Z,101459.83
2023-04-15T09:25:11.830Z,101452.03
2023-04-15T09:26:13.851Z,101452.03
2023-04-15T09:27:15.658Z,101450.23
2023-04-15T09:28:17.560Z,101444.95
2023-04-15T09:29:19.405Z,101445.78
2023-04-15T09:30:21.214Z,101443.14
2023-04-15T09:31:23.018Z,101441.41
2023-04-15T09:32:24.782Z,101450.98
2023-04-15T09:33:26.523Z,101441.45
2023-04-15T09:34:28.360Z,101440.58
2023-04-15T09:35:31.966Z,101451.95
2023-04-15T09:36:33.760Z,101451.09
2023-04-15T09:37:35.604Z,101461.53
2023-04-15T09:38:37.378Z,101454.59
2023-04-15T09:39:39.218Z,101455.46
2023-04-15T09:40:41.008Z,101454.67
2023-04-15T09:41:42.813Z,101460.77
2023-04-15T09:42:44.515Z,101464.28
2023-04-15T09:43:46.328Z,101460.92
2023-04-15T09:44:48.178Z,101457.48
2023-04-15T09:45:49.997Z,101461.86
2023-04-15T09:46:51.773Z,101464.46
2023-04-15T09:47:53.633Z,101464.46
2023-04-15T09:48:55.485Z,101462.77
2023-04-15T09:49:57.376Z,101470.60
2023-04-15T09:50:59.208Z,101472.30
2023-04-15T09:52:05.569Z,101473.20
2023-04-15T09:53:04.623Z,101468.87
2023-04-15T09:54:06.443Z,101481.91
2023-04-15T09:55:08.291Z,101479.27
2023-04-15T09:56:10.101Z,101473.20
2023-04-15T09:57:11.914Z,101481.84
2023-04-15T09:58:13.703Z,101484.47
2023-04-15T09:59:15.521Z,101475.80
2023-04-15T10:00:17.350Z,101482.73
2023-04-15T10:01:19.159Z,101478.41
2023-04-15T10:02:21.129Z,101482.73
2023-04-15T10:03:23.283Z,101482.73
2023-04-15T10:04:25.287Z,101480.97
2023-04-15T10:05:27.122Z,101482.59
2023-04-15T10:06:28.925Z,101487.76
2023-04-15T10:07:30.733Z,101478.19
2023-04-15T10:08:32.420Z,101487.69
2023-04-15T10:09:34.223Z,101483.31
2023-04-15T10:10:36.074Z,101480.70
2023-04-15T10:11:37.923Z,101475.51
2023-04-15T10:12:39.722Z,101488.47
2023-04-15T10:13:41.523Z,101491.08
2023-04-15T10:14:43.328Z,101491.94
2023-04-15T10:15:45.220Z,101484.97
2023-04-15T10:16:47.074Z,101479.73
2023-04-15T10:17:49.070Z,101489.30
2023-04-15T10:18:50.914Z,101492.81
2023-04-15T10:19:52.702Z,101488.51
2023-04-15T10:20:54.547Z,101486.81
2023-04-15T10:21:56.352Z,101492.88
2023-04-15T10:22:58.171Z,101491.11
2023-04-15T10:24:00.328Z,101491.08
2023-04-15T10:25:02.269Z,101498.01
2023-04-15T10:26:04.053Z,101488.51
2023-04-15T10:27:05.868Z,101486.81
2023-04-15T10:28:07.690Z,101499.02
2023-04-15T10:29:09.459Z,101504.30
2023-04-15T10:30:11.274Z,101508.64
2023-04-15T10:31:13.189Z,101499.20
2023-04-15T10:32:14.915Z,101487.03
2023-04-15T10:33:16.612Z,101494.01
2023-04-15T10:34:18.410Z,101495.70
2023-04-15T10:35:20.209Z,101509.69
2023-04-15T10:36:22.054Z,101514.97
2023-04-15T10:37:23.860Z,101501.95
2023-04-15T10:38:25.669Z,101501.13
2023-04-15T10:39:27.476Z,101495.89
2023-04-15T10:40:29.288Z,101501.95
2023-04-15T10:41:31.146Z,101497.59
2023-04-15T10:42:33.085Z,101495.92
2023-04-15T10:43:34.856Z,101513.27
2023-04-15T10:44:36.649Z,101495.95
2023-04-15T10:45:38.459Z,101502.09
2023-04-15T10:46:40.414Z,101500.36
2023-04-15T10:47:43.353Z,101499.57
2023-04-15T10:48:45.231Z,101500.44
2023-04-15T10:49:47.036Z,101500.47
2023-04-15T10:50:48.830Z,101501.37
2023-04-15T10:51:50.562Z,101500.52
2023-04-15T10:52:52.355Z,101500.47
2023-04-15T10:53:54.178Z,101503.11
2023-04-15T10:54:55.960Z,101503.98
2023-04-15T10:55:57.672Z,101505.75
2023-04-15T10:56:59.506Z,101510.12
2023-04-15T10:58:01.320Z,101509.29
2023-04-15T10:59:03.116Z,101501.55
2023-04-15T11:00:04.936Z,101504.19
2023-04-15T11:01:06.735Z,101510.30
2023-04-15T11:02:08.726Z,101499.92
2023-04-15T11:03:11.028Z,101499.96
2023-04-15T11:04:13.117Z,101503.50
2023-04-15T11:05:14.982Z,101496.59
2023-04-15T11:06:16.794Z,101500.97
2023-04-15T11:07:18.628Z,101507.05
2023-04-15T11:08:20.478Z,101504.50
2023-04-15T11:09:22.297Z,101508.02
2023-04-15T11:10:24.210Z,101496.80
2023-04-15T11:11:26.022Z,101502.00
2023-04-15T11:12:27.865Z,101503.74
2023-04-15T11:13:29.679Z,101488.16
2023-04-15T11:14:31.487Z,101492.47
2023-04-15T11:15:33.306Z,101491.63
2023-04-15T11:16:35.221Z,101502.08
2023-04-15T11:17:37.153Z,101507.28
2023-04-15T11:18:38.937Z,101491.66
2023-04-15T11:19:40.784Z,101494.27
2023-04-15T11:20:42.567Z,101496.88
2023-04-15T11:21:44.258Z,101501.20
2023-04-15T11:22:46.030Z,101494.23
2023-04-15T11:23:47.840Z,101497.73
2023-04-15T11:24:49.653Z,101496.00
2023-04-15T11:25:51.464Z,101493.40
2023-04-15T11:26:53.262Z,101495.17
2023-04-15T11:27:55.188Z,101496.94
2023-04-15T11:28:57.023Z,101501.31
2023-04-15T11:29:58.713Z,101496.11
2023-04-15T11:31:00.501Z,101498.73
2023-04-15T11:32:02.266Z,101502.18
2023-04-15T11:33:04.221Z,101490.86
2023-04-15T11:34:06.105Z,101503.81
2023-04-15T11:35:07.900Z,101495.94
2023-04-15T11:36:10.013Z,101499.38
2023-04-15T11:37:11.846Z,101493.30
2023-04-15T11:38:13.771Z,101494.16
2023-04-15T11:39:15.670Z,101503.70
2023-04-15T11:40:17.461Z,101496.73
2023-04-15T11:41:19.258Z,101501.04
2023-04-15T11:42:21.075Z,101496.70
2023-04-15T11:43:22.970Z,101495.80
2023-04-15T11:44:24.749Z,101506.20
2023-04-15T11:45:26.587Z,101491.39